createdAt,value
2023-05-16T00:01:52.573Z,2.65
2023-05-16T00:04:54.532Z,2.70
2023-05-16T00:07:56.286Z,2.40
2023-05-16T00:11:00.452Z,2.30
2023-05-16T00:14:02.961Z,2.53
2023-05-16T00:17:05.494Z,2.15
2023-05-16T00:20:08.610Z,2.50
2023-05-16T00:23:10.304Z,2.63
2023-05-16T00:26:15.330Z,2.72
2023-05-16T00:29:17.045Z,2.67
2023-05-16T00:32:21.737Z,2.70
2023-05-16T00:35:23.931Z,2.80
2023-05-16T00:38:26.673Z,2.67
2023-05-16T00:41:30.714Z,3.08
2023-05-16T00:44:32.691Z,2.95
2023-05-16T00:47:35.946Z,3.00
2023-05-16T00:50:38.132Z,3.20
2023-05-16T00:53:39.906Z,2.97
2023-05-16T00:56:45.652Z,2.70
2023-05-16T00:59:48.715Z,2.88
2023-05-16T01:02:52.149Z,2.80
2023-05-16T01:05:55.391Z,3.03
2023-05-16T01:08:57.820Z,2.70
2023-05-16T01:12:09.183Z,2.80
2023-05-16T01:15:15.644Z,2.80
2023-05-16T01:18:28.298Z,2.60
2023-05-16T01:21:42.336Z,2.40
2023-05-16T01:24:55.488Z,2.60
2023-05-16T01:27:59.619Z,2.38
2023-05-16T01:31:01.550Z,2.58
2023-05-16T01:34:03.510Z,2.67
2023-05-16T01:37:15.252Z,3.05
2023-05-16T01:40:26.874Z,2.90
2023-05-16T01:43:35.396Z,2.88
2023-05-16T01:46:40.585Z,2.80
2023-05-16T01:49:49.952Z,2.70
2023-05-16T01:56:02.251Z,3.13
2023-05-16T01:59:09.175Z,2.67
2023-05-16T02:02:11.098Z,2.80
2023-05-16T02:05:13.174Z,2.60
2023-05-16T02:08:14.869Z,2.95
2023-05-16T02:11:19.575Z,2.38
2023-05-16T02:14:23.118Z,2.67
2023-05-16T02:17:25.045Z,2.67
2023-05-16T02:20:27.933Z,2.60
2023-05-16T02:23:29.657Z,2.75
2023-05-16T02:26:31.583Z,2.80
2023-05-16T02:29:37.529Z,2.88
2023-05-16T02:32:40.481Z,2.67
2023-05-16T02:35:42.294Z,3.28
2023-05-16T02:38:44.738Z,2.90
2023-05-16T02:41:46.693Z,2.90
2023-05-16T02:44:49.995Z,2.80
2023-05-16T02:47:51.791Z,2.78
2023-05-16T02:50:53.780Z,3.10
2023-05-16T02:53:56.043Z,3.42
2023-05-16T02:56:59.125Z,3.45
2023-05-16T03:00:02.375Z,3.17
2023-05-16T03:03:04.184Z,2.90
2023-05-16T03:06:06.171Z,3.20
2023-05-16T03:09:10.254Z,3.17
2023-05-16T03:12:11.964Z,2.83
2023-05-16T03:15:15.234Z,3.05
2023-05-16T03:18:16.982Z,3.20
2023-05-16T03:21:18.940Z,2.90
2023-05-16T03:24:20.952Z,3.30
2023-05-16T03:27:22.909Z,3.78
2023-05-16T03:30:27.536Z,3.85
2023-05-16T03:33:30.460Z,3.78
2023-05-16T03:36:32.147Z,3.92
2023-05-16T03:39:33.863Z,3.60
2023-05-16T03:42:35.540Z,3.65
2023-05-16T03:45:40.316Z,3.50
2023-05-16T03:48:42.019Z,4.10
2023-05-16T03:51:43.994Z,4.20
2023-05-16T03:54:45.957Z,3.70
2023-05-16T03:57:47.909Z,3.85
2023-05-16T04:00:53.277Z,3.60
2023-05-16T04:03:55.007Z,3.40
2023-05-16T04:06:59.320Z,3.88
2023-05-16T04:10:01.741Z,3.42
2023-05-16T04:13:03.571Z,3.90
2023-05-16T04:16:09.237Z,4.70
2023-05-16T04:19:10.995Z,3.80
2023-05-16T04:22:13.573Z,3.78
2023-05-16T04:25:17.623Z,3.80
2023-05-16T04:28:19.591Z,4.80
2023-05-16T04:31:23.682Z,4.72
2023-05-16T04:34:25.553Z,5.10
2023-05-16T04:37:27.772Z,4.38
2023-05-16T04:40:30.475Z,4.70
2023-05-16T04:43:32.193Z,4.90
2023-05-16T04:46:35.668Z,4.60
2023-05-16T04:49:37.378Z,4.85
2023-05-16T04:52:39.120Z,4.57
2023-05-16T04:55:41.533Z,5.00
2023-05-16T04:58:43.710Z,5.20
2023-05-16T05:01:47.029Z,4.95
2023-05-16T05:04:48.802Z,4.65
2023-05-16T05:07:53.256Z,4.43
2023-05-16T05:10:56.351Z,6.05
2023-05-16T05:14:00.702Z,5.22
2023-05-16T05:17:04.522Z,5.22
2023-05-16T05:20:08.080Z,6.78
2023-05-16T05:23:10.533Z,5.82
2023-05-16T05:26:13.550Z,5.82
2023-05-16T05:29:15.287Z,6.65
2023-05-16T05:32:23.219Z,7.00
2023-05-16T05:35:25.532Z,6.72
2023-05-16T05:38:28.016Z,6.78
2023-05-16T05:41:29.981Z,6.00
2023-05-16T05:44:33.804Z,6.07
2023-05-16T05:47:37.474Z,5.80
2023-05-16T05:50:40.250Z,5.45
2023-05-16T05:53:43.498Z,5.70
2023-05-16T05:56:45.691Z,5.63
2023-05-16T05:59:47.620Z,5.05
2023-05-16T06:02:50.934Z,5.45
2023-05-16T06:05:53.101Z,5.22
2023-05-16T06:08:55.774Z,5.53
2023-05-16T06:11:57.773Z,5.28
2023-05-16T06:15:01.338Z,4.95
2023-05-16T06:18:06.151Z,4.82
2023-05-16T06:21:08.177Z,5.10
2023-05-16T06:24:10.248Z,5.18
2023-05-16T06:27:12.250Z,5.05
2023-05-16T06:30:14.635Z,5.45
2023-05-16T06:33:17.727Z,4.82
2023-05-16T06:36:19.660Z,5.32
2023-05-16T06:39:22.220Z,4.63
2023-05-16T06:42:27.800Z,5.38
2023-05-16T06:45:30.332Z,5.30
2023-05-16T06:48:33.634Z,5.95
2023-05-16T06:51:35.505Z,5.40
2023-05-16T06:54:40.011Z,5.60
2023-05-16T06:57:42.523Z,6.07
2023-05-16T07:00:44.236Z,5.57
2023-05-16T07:03:47.854Z,6.05
2023-05-16T07:06:49.677Z,6.18
2023-05-16T07:09:52.169Z,5.78
2023-05-16T07:12:54.225Z,5.90
2023-05-16T07:15:55.966Z,6.18
2023-05-16T07:19:00.412Z,5.90
2023-05-16T07:22:02.823Z,5.97
2023-05-16T07:25:05.504Z,6.50
2023-05-16T07:28:08.001Z,6.30
2023-05-16T07:31:10.303Z,6.68
2023-05-16T07:34:14.170Z,6.57
2023-05-16T07:37:16.741Z,6.10
2023-05-16T07:40:19.020Z,5.80
2023-05-16T07:43:21.492Z,6.30
2023-05-16T07:46:24.448Z,6.00
2023-05-16T07:49:27.596Z,6.63
2023-05-16T07:52:30.111Z,6.40
2023-05-16T07:55:32.424Z,6.80
2023-05-16T07:58:34.592Z,5.70
2023-05-16T08:01:37.225Z,5.80
2023-05-16T08:04:40.369Z,6.25
2023-05-16T08:07:42.422Z,6.80
2023-05-16T08:10:44.476Z,6.85
2023-05-16T08:13:46.363Z,7.30
2023-05-16T08:16:48.169Z,7.90
2023-05-16T08:19:51.762Z,7.30
2023-05-16T08:22:54.150Z,7.88
2023-05-16T08:25:56.173Z,7.38
2023-05-16T08:28:58.162Z,7.50
2023-05-16T08:32:00.234Z,7.40
2023-05-16T08:35:03.526Z,7.28
2023-05-16T08:38:05.383Z,7.30
2023-05-16T08:41:07.779Z,7.25
2023-05-16T08:44:12.204Z,7.18
2023-05-16T08:47:18.995Z,7.78
2023-05-16T08:50:23.598Z,7.32
2023-05-16T08:53:34.655Z,7.93
2023-05-16T08:56:38.711Z,7.88
2023-05-16T08:59:41.054Z,8.40
2023-05-16T09:02:46.220Z,9.57
2023-05-16T09:05:49.713Z,8.52
2023-05-16T09:08:54.129Z,8.63
2023-05-16T09:11:56.381Z,9.68
2023-05-16T09:14:58.574Z,10.07
2023-05-16T09:18:01.561Z,9.52
2023-05-16T09:21:05.822Z,9.32
2023-05-16T09:24:11.964Z,10.40
2023-05-16T09:27:16.173Z,9.70
2023-05-16T09:30:30.270Z,9.82
2023-05-16T09:33:33.488Z,9.57
2023-05-16T09:36:37.103Z,9.68
2023-05-16T09:39:45.763Z,10.32
2023-05-16T09:42:47.640Z,7.38
2023-05-16T09:45:49.875Z,9.15
2023-05-16T09:48:52.093Z,9.13
2023-05-16T09:51:55.757Z,8.18
2023-05-16T09:54:59.431Z,8.98
2023-05-16T09:58:01.371Z,8.77
2023-05-16T10:01:03.720Z,8.75
2023-05-16T10:04:06.039Z,9.80
2023-05-16T10:07:10.741Z,9.45
2023-05-16T10:10:14.596Z,9.70
2023-05-16T10:13:18.202Z,9.75
2023-05-16T10:16:22.026Z,10.25
2023-05-16T10:19:26.699Z,9.98
2023-05-16T10:22:32.871Z,8.88
2023-05-16T10:25:39.248Z,10.32
2023-05-16T10:28:41.279Z,10.25
2023-05-16T10:31:43.759Z,9.80
2023-05-16T10:34:46.581Z,10.23
2023-05-16T10:37:51.502Z,10.15
2023-05-16T10:40:57.635Z,10.05
2023-05-16T10:44:00.013Z,9.15
2023-05-16T10:47:04.214Z,8.93
2023-05-16T10:50:07.893Z,10.20
2023-05-16T10:53:22.318Z,9.63
2023-05-16T10:56:27.575Z,9.63
2023-05-16T10:59:40.719Z,9.85
2023-05-16T11:02:43.547Z,9.50
2023-05-16T11:05:52.430Z,9.15
2023-05-16T11:09:07.086Z,6.68
2023-05-16T11:12:09.905Z,9.52
2023-05-16T11:15:24.219Z,9.98
2023-05-16T11:18:28.516Z,9.85
2023-05-16T11:22:03.477Z,10.20
2023-05-16T11:25:09.124Z,10.38
2023-05-16T11:28:13.105Z,10.35
2023-05-16T11:31:15.232Z,10.80
2023-05-16T11:34:17.343Z,10.55
2023-05-16T11:37:22.514Z,11.10
2023-05-16T11:40:27.070Z,11.20
2023-05-16T11:43:28.948Z,11.32
2023-05-16T11:46:31.850Z,11.15
2023-05-16T11:49:34.934Z,11.45
2023-05-16T11:52:37.322Z,11.43
2023-05-16T11:55:42.605Z,11.82
2023-05-16T11:58:45.755Z,11.43
2023-05-16T12:01:48.672Z,12.63
2023-05-16T12:04:50.785Z,12.60
2023-05-16T12:07:53.499Z,12.70
2023-05-16T12:10:57.068Z,12.65
2023-05-16T12:13:59.144Z,11.98
2023-05-16T12:17:01.165Z,12.43
2023-05-16T12:20:04.921Z,11.82
2023-05-16T12:23:11.804Z,12.15
2023-05-16T12:26:15.140Z,9.25
2023-05-16T12:29:17.145Z,9.63
2023-05-16T12:32:21.978Z,9.43
2023-05-16T12:35:25.237Z,9.15
2023-05-16T12:38:29.480Z,9.13
2023-05-16T12:41:32.949Z,9.75
2023-05-16T12:44:35.623Z,9.45
2023-05-16T12:47:38.829Z,9.93
2023-05-16T12:50:41.859Z,10.07
2023-05-16T12:53:49.145Z,9.82
2023-05-16T12:56:59.196Z,11.00
2023-05-16T13:00:00.954Z,11.55
2023-05-16T13:03:02.834Z,11.10
2023-05-16T13:06:06.104Z,11.25
2023-05-16T13:09:08.475Z,12.25
2023-05-16T13:12:13.873Z,10.93
2023-05-16T13:15:17.833Z,9.15
2023-05-16T13:18:20.372Z,9.77
2023-05-16T13:21:24.653Z,9.32
2023-05-16T13:24:26.425Z,8.68
2023-05-16T13:27:29.882Z,8.75
2023-05-16T13:30:31.680Z,8.57
2023-05-16T13:33:33.393Z,8.13
2023-05-16T13:36:52.456Z,8.23
2023-05-16T13:39:55.581Z,7.72
2023-05-16T13:43:00.500Z,7.93
2023-05-16T13:46:02.325Z,7.32
2023-05-16T13:49:04.850Z,6.82
2023-05-16T13:52:07.312Z,7.25
2023-05-16T13:55:09.851Z,7.47
2023-05-16T13:58:16.140Z,5.97
2023-05-16T14:01:18.877Z,6.57
2023-05-16T14:04:23.318Z,5.93
2023-05-16T14:07:25.934Z,6.38
2023-05-16T14:10:27.757Z,6.25
2023-05-16T14:13:31.179Z,5.55
2023-05-16T14:16:32.986Z,6.22
2023-05-16T14:19:38.073Z,6.30
2023-05-16T14:22:39.942Z,5.72
2023-05-16T14:25:41.701Z,6.25
2023-05-16T14:28:44.978Z,6.28
2023-05-16T14:31:51.322Z,5.85
2023-05-16T14:34:55.392Z,6.55
2023-05-16T14:37:57.331Z,6.22
2023-05-16T14:40:59.189Z,6.03
2023-05-16T14:44:02.816Z,6.32
2023-05-16T14:47:06.023Z,6.68
2023-05-16T14:50:10.172Z,6.70
2023-05-16T14:53:12.361Z,6.10
2023-05-16T14:56:16.888Z,6.60
2023-05-16T14:59:20.352Z,6.20
2023-05-16T15:02:23.326Z,6.43
2023-05-16T15:05:25.584Z,6.55
2023-05-16T15:08:27.708Z,6.10
2023-05-16T15:11:30.358Z,6.60
2023-05-16T15:14:35.693Z,6.53
2023-05-16T15:17:40.440Z,6.57
2023-05-16T15:20:44.873Z,7.55
2023-05-16T15:23:47.501Z,6.82
2023-05-16T15:26:51.023Z,7.15
2023-05-16T15:29:55.857Z,7.18
2023-05-16T15:32:59.369Z,6.40
2023-05-16T15:36:01.961Z,7.40
2023-05-16T15:39:06.211Z,7.43
2023-05-16T15:42:11.290Z,6.97
2023-05-16T15:45:17.928Z,6.80
2023-05-16T15:48:20.784Z,6.80
2023-05-16T15:51:23.401Z,7.53
2023-05-16T15:54:25.959Z,13.77
2023-05-16T15:57:28.488Z,18.60
2023-05-16T16:00:32.425Z,11.23
2023-05-16T16:03:35.688Z,8.88
2023-05-16T16:06:38.314Z,8.25
2023-05-16T16:09:42.400Z,8.50
2023-05-16T16:12:45.628Z,14.00
2023-05-16T16:15:50.766Z,22.67
2023-05-16T16:18:54.459Z,16.63
2023-05-16T16:21:57.030Z,12.32
2023-05-16T16:24:59.591Z,12.48
2023-05-16T16:28:02.151Z,10.20
2023-05-16T16:31:06.370Z,8.93
2023-05-16T16:34:11.876Z,9.00
2023-05-16T16:37:19.685Z,10.05
2023-05-16T16:40:27.388Z,16.77
2023-05-16T16:43:30.726Z,24.45
2023-05-16T16:46:36.428Z,43.15
2023-05-16T16:49:39.267Z,37.05
2023-05-16T16:52:42.571Z,45.95
2023-05-16T16:55:45.895Z,27.63
2023-05-16T16:58:48.550Z,20.40
2023-05-16T17:01:53.534Z,14.52
2023-05-16T17:04:58.708Z,12.52
2023-05-16T17:08:02.267Z,9.52
2023-05-16T17:11:06.945Z,9.63
2023-05-16T17:14:09.734Z,6.78
2023-05-16T17:17:13.794Z,7.75
2023-05-16T17:20:17.261Z,7.00
2023-05-16T17:23:19.839Z,6.95
2023-05-16T17:26:23.126Z,7.68
2023-05-16T17:29:26.301Z,7.88
2023-05-16T17:32:30.776Z,7.65
2023-05-16T17:35:33.389Z,7.53
2023-05-16T17:38:36.224Z,7.07
2023-05-16T17:41:39.819Z,6.95
2023-05-16T17:44:43.448Z,7.25
2023-05-16T17:47:48.692Z,7.45
2023-05-16T17:50:53.425Z,7.75
2023-05-16T17:53:56.036Z,9.00
2023-05-16T17:57:00.238Z,44.55
2023-05-16T18:00:02.904Z,15.60
2023-05-16T18:03:09.047Z,10.15
2023-05-16T18:06:12.694Z,9.18
2023-05-16T18:09:17.780Z,21.02
2023-05-16T18:12:20.681Z,7.68
2023-05-16T18:15:23.251Z,6.45
2023-05-16T18:18:27.246Z,7.47
2023-05-16T18:21:30.328Z,7.88
2023-05-16T18:24:35.169Z,9.68
2023-05-16T18:27:38.929Z,7.63
2023-05-16T18:30:42.322Z,19.73
2023-05-16T18:33:46.460Z,15.13
2023-05-16T18:36:49.170Z,19.45
2023-05-16T18:39:51.745Z,16.73
2023-05-16T18:42:55.896Z,82.28
2023-05-16T18:45:59.219Z,26.80
2023-05-16T18:49:03.534Z,33.65
2023-05-16T18:52:07.023Z,17.65
2023-05-16T18:55:10.288Z,7.30
2023-05-16T18:58:12.937Z,6.47
2023-05-16T19:01:15.685Z,7.82
2023-05-16T19:04:20.227Z,8.10
2023-05-16T19:07:22.916Z,8.60
2023-05-16T19:10:25.792Z,7.43
2023-05-16T19:13:28.902Z,6.90
2023-05-16T19:16:31.920Z,6.10
2023-05-16T19:19:39.379Z,6.43
2023-05-16T19:22:42.045Z,6.07
2023-05-16T19:25:47.856Z,6.10
2023-05-16T19:28:53.228Z,6.47
2023-05-16T19:31:58.884Z,5.57
2023-05-16T19:35:05.753Z,5.75
2023-05-16T19:38:08.375Z,6.20
2023-05-16T19:41:10.931Z,5.55
2023-05-16T19:44:14.534Z,5.60
2023-05-16T19:47:17.014Z,6.65
2023-05-16T19:50:21.905Z,5.97
2023-05-16T19:53:24.411Z,6.32
2023-05-16T19:56:26.925Z,5.72
2023-05-16T19:59:30.680Z,5.70
2023-05-16T20:02:33.134Z,6.13
2023-05-16T20:05:36.883Z,5.47
2023-05-16T20:08:39.328Z,5.88
2023-05-16T20:11:42.028Z,5.78
2023-05-16T20:14:44.524Z,7.35
2023-05-16T20:17:47.123Z,6.82
2023-05-16T20:20:52.317Z,7.22
2023-05-16T20:23:54.847Z,7.28
2023-05-16T20:26:57.390Z,7.68
2023-05-16T20:30:00.189Z,7.90
2023-05-16T20:33:03.381Z,8.15
2023-05-16T20:36:07.656Z,7.32
2023-05-16T20:39:10.474Z,7.55
2023-05-16T20:42:13.271Z,6.78
2023-05-16T20:45:15.779Z,8.80
2023-05-16T20:48:18.245Z,12.05
2023-05-16T20:51:22.268Z,12.80
2023-05-16T20:54:26.505Z,13.85
2023-05-16T20:57:29.524Z,14.63
2023-05-16T21:00:31.418Z,15.93
2023-05-16T21:03:33.288Z,16.70
2023-05-16T21:06:36.955Z,15.80
2023-05-16T21:09:40.853Z,15.32
2023-05-16T21:12:43.943Z,16.05
2023-05-16T21:15:45.872Z,16.83
2023-05-16T21:18:53.360Z,15.90
2023-05-16T21:21:58.918Z,14.65
2023-05-16T21:25:00.713Z,14.40
2023-05-16T21:28:02.806Z,13.57
2023-05-16T21:31:04.864Z,14.50
2023-05-16T21:34:06.618Z,14.95
2023-05-16T21:37:11.811Z,14.48
2023-05-16T21:40:14.142Z,14.38
2023-05-16T21:43:15.955Z,14.45
2023-05-16T21:46:17.981Z,15.45
2023-05-16T21:49:19.942Z,15.93
2023-05-16T21:52:23.108Z,16.25
2023-05-16T21:55:27.271Z,17.70
2023-05-16T21:58:29.373Z,18.65
2023-05-16T22:01:31.176Z,18.80
2023-05-16T22:04:33.170Z,19.15
2023-05-16T22:07:36.965Z,17.70
2023-05-16T22:10:40.357Z,17.63
2023-05-16T22:13:42.235Z,18.83
2023-05-16T22:16:44.257Z,17.58
2023-05-16T22:19:47.885Z,17.70
2023-05-16T22:22:51.629Z,17.02
2023-05-16T22:25:53.402Z,16.73
2023-05-16T22:28:55.247Z,16.20
2023-05-16T22:31:57.192Z,17.23
2023-05-16T22:34:59.030Z,15.95
2023-05-16T22:38:02.401Z,16.73
2023-05-16T22:41:04.760Z,16.50
2023-05-16T22:44:06.735Z,15.18
2023-05-16T22:47:08.527Z,15.45
2023-05-16T22:50:10.855Z,15.10
2023-05-16T22:53:14.509Z,14.40
2023-05-16T22:56:16.491Z,14.75
2023-05-16T22:59:18.186Z,14.18
2023-05-16T23:02:20.153Z,14.27
2023-05-16T23:05:21.849Z,14.07
2023-05-16T23:08:25.543Z,13.52
2023-05-16T23:11:27.291Z,16.95
2023-05-16T23:14:29.265Z,16.90
2023-05-16T23:17:31.026Z,18.25
2023-05-16T23:20:33.010Z,19.30
2023-05-16T23:23:36.538Z,19.13
2023-05-16T23:26:40.896Z,18.38
2023-05-16T23:29:42.648Z,19.08
2023-05-16T23:32:44.696Z,17.77
2023-05-16T23:35:46.632Z,17.70
2023-05-16T23:38:49.714Z,17.95
2023-05-16T23:41:51.591Z,16.98
2023-05-16T23:44:53.540Z,17.95
2023-05-16T23:47:55.337Z,17.58
2023-05-16T23:50:57.088Z,15.10
2023-05-16T23:54:00.766Z,16.13
2023-05-16T23:57:02.785Z,14.07
